createdAt,value
2019-04-27T00:00:38.955Z,9.50
2019-04-27T00:03:10.154Z,9.60
2019-04-27T00:05:50.061Z,9.60
2019-04-27T00:08:32.519Z,9.70
2019-04-27T00:11:20.269Z,9.70
2019-04-27T00:13:53.477Z,9.60
2019-04-27T00:16:25.428Z,9.60
2019-04-27T00:19:13.300Z,9.70
2019-04-27T00:21:48.448Z,9.70
2019-04-27T00:24:21.126Z,9.70
2019-04-27T00:26:50.636Z,9.70
2019-04-27T00:29:20.214Z,9.70
2019-04-27T00:31:50.300Z,9.70
2019-04-27T00:34:20.114Z,9.70
2019-04-27T00:36:57.700Z,9.70
2019-04-27T00:39:34.541Z,9.60
2019-04-27T00:42:04.257Z,9.60
2019-04-27T00:44:33.970Z,9.60
2019-04-27T00:47:05.095Z,9.60
2019-04-27T00:49:34.841Z,9.60
2019-04-27T00:52:04.957Z,9.70
2019-04-27T00:54:34.614Z,9.70
2019-04-27T00:57:17.979Z,9.80
2019-04-27T01:00:05.412Z,9.80
2019-04-27T01:02:37.640Z,9.80
2019-04-27T01:05:09.536Z,9.90
2019-04-27T01:07:39.084Z,9.90
2019-04-27T01:10:09.610Z,9.80
2019-04-27T01:12:39.093Z,9.80
2019-04-27T01:15:08.750Z,9.60
2019-04-27T01:17:39.081Z,9.50
2019-04-27T01:20:09.485Z,9.40
2019-04-27T01:22:39.232Z,9.30
2019-04-27T01:25:09.361Z,9.20
2019-04-27T01:27:41.459Z,9.10
2019-04-27T01:30:13.243Z,9.10
2019-04-27T01:32:42.888Z,9.10
2019-04-27T01:35:12.440Z,9.00
2019-04-27T01:37:41.928Z,9.00
2019-04-27T01:40:11.670Z,8.90
2019-04-27T01:42:41.407Z,8.90
2019-04-27T01:45:11.217Z,8.90
2019-04-27T01:47:40.698Z,8.80
2019-04-27T01:50:10.834Z,8.80
2019-04-27T01:52:40.324Z,8.80
2019-04-27T01:55:10.260Z,8.80
2019-04-27T01:57:39.801Z,8.70
2019-04-27T02:00:29.992Z,8.70
2019-04-27T02:03:01.124Z,8.70
2019-04-27T02:05:34.984Z,8.70
2019-04-27T02:08:04.813Z,8.60
2019-04-27T02:10:34.477Z,8.60
2019-04-27T02:13:04.141Z,8.60
2019-04-27T02:15:33.984Z,8.50
2019-04-27T02:18:03.482Z,8.50
2019-04-27T02:20:33.020Z,8.50
2019-04-27T02:23:02.568Z,8.50
2019-04-27T02:25:32.318Z,8.50
2019-04-27T02:28:03.592Z,8.50
2019-04-27T02:30:32.945Z,8.40
2019-04-27T02:33:20.362Z,8.40
2019-04-27T02:35:50.754Z,8.40
2019-04-27T02:38:20.488Z,8.40
2019-04-27T02:40:56.498Z,8.40
2019-04-27T02:43:31.310Z,8.40
2019-04-27T02:46:00.806Z,8.40
2019-04-27T02:48:30.321Z,8.40
2019-04-27T02:51:04.443Z,8.40
2019-04-27T02:53:51.510Z,8.40
2019-04-27T02:56:21.037Z,8.40
2019-04-27T02:58:50.657Z,8.40
2019-04-27T03:01:21.337Z,8.40
2019-04-27T03:03:50.923Z,8.30
2019-04-27T03:06:20.634Z,8.40
2019-04-27T03:08:53.864Z,8.30
2019-04-27T03:11:23.560Z,8.30
2019-04-27T03:13:52.776Z,8.30
2019-04-27T03:16:24.009Z,8.30
2019-04-27T03:19:10.356Z,8.30
2019-04-27T03:21:44.390Z,8.30
2019-04-27T03:24:14.197Z,8.20
2019-04-27T03:26:50.085Z,8.20
2019-04-27T03:29:20.230Z,8.20
2019-04-27T03:31:53.986Z,8.30
2019-04-27T03:34:22.782Z,8.20
2019-04-27T03:36:52.710Z,8.20
2019-04-27T03:39:22.235Z,8.20
2019-04-27T03:41:52.869Z,8.20
2019-04-27T03:44:22.714Z,8.20
2019-04-27T03:46:52.330Z,8.10
2019-04-27T03:49:34.593Z,8.00
2019-04-27T03:51:54.946Z,8.00
2019-04-27T03:54:31.588Z,8.00
2019-04-27T03:57:02.795Z,8.00
2019-04-27T03:59:34.081Z,8.00
2019-04-27T04:02:03.891Z,8.00
2019-04-27T04:04:33.440Z,8.00
2019-04-27T04:07:14.798Z,8.00
2019-04-27T04:09:44.456Z,8.00
2019-04-27T04:12:19.728Z,8.10
2019-04-27T04:14:49.506Z,8.10
2019-04-27T04:17:26.393Z,8.20
2019-04-27T04:19:58.551Z,8.20
2019-04-27T04:22:27.157Z,8.20
2019-04-27T04:24:56.684Z,8.20
2019-04-27T04:27:26.221Z,8.20
2019-04-27T04:29:55.751Z,8.20
2019-04-27T04:32:25.434Z,8.30
2019-04-27T04:35:01.318Z,8.30
2019-04-27T04:37:31.040Z,8.40
2019-04-27T04:40:00.736Z,8.40
2019-04-27T04:42:34.335Z,8.50
2019-04-27T04:45:22.987Z,8.50
2019-04-27T04:47:54.190Z,8.60
2019-04-27T04:50:23.795Z,8.80
2019-04-27T04:52:53.294Z,8.90
2019-04-27T04:55:22.855Z,9.00
2019-04-27T04:57:52.339Z,9.10
2019-04-27T05:00:22.313Z,9.20
2019-04-27T05:02:51.940Z,9.30
2019-04-27T05:05:21.463Z,9.40
2019-04-27T05:07:50.935Z,9.50
2019-04-27T05:10:20.473Z,9.60
2019-04-27T05:12:50.428Z,9.70
2019-04-27T05:15:20.736Z,9.80
2019-04-27T05:17:51.009Z,10.10
2019-04-27T05:20:39.540Z,10.80
2019-04-27T05:23:09.636Z,11.50
2019-04-27T05:25:39.284Z,12.50
2019-04-27T05:28:09.750Z,13.30
2019-04-27T05:30:39.653Z,13.90
2019-04-27T05:33:09.181Z,14.60
2019-04-27T05:35:40.988Z,15.40
2019-04-27T05:38:12.943Z,16.00
2019-04-27T05:40:41.523Z,16.10
2019-04-27T05:43:12.734Z,16.40
2019-04-27T05:46:16.626Z,16.40
2019-04-27T05:48:46.535Z,17.10
2019-04-27T05:51:16.048Z,17.50
2019-04-27T05:53:45.545Z,16.90
2019-04-27T05:56:15.160Z,16.50
2019-04-27T05:58:44.685Z,16.20
2019-04-27T06:01:14.327Z,16.60
2019-04-27T06:03:43.872Z,17.20
2019-04-27T06:06:13.712Z,17.60
2019-04-27T06:08:43.205Z,17.20
2019-04-27T06:11:12.738Z,16.30
2019-04-27T06:13:42.262Z,15.60
2019-04-27T06:16:11.770Z,15.20
2019-04-27T06:18:41.368Z,14.70
2019-04-27T06:21:11.028Z,14.50
2019-04-27T06:23:40.728Z,14.40
2019-04-27T06:26:11.749Z,14.50
2019-04-27T06:28:41.463Z,14.50
2019-04-27T06:31:11.237Z,14.50
2019-04-27T06:33:40.996Z,14.70
2019-04-27T06:36:10.494Z,14.70
2019-04-27T06:38:40.016Z,14.60
2019-04-27T06:41:10.160Z,14.20
2019-04-27T06:43:40.708Z,13.70
2019-04-27T06:46:10.539Z,13.40
2019-04-27T06:48:40.380Z,13.20
2019-04-27T06:51:09.879Z,13.00
2019-04-27T06:53:39.587Z,12.90
2019-04-27T06:56:09.396Z,12.80
2019-04-27T06:58:40.782Z,12.80
2019-04-27T07:01:11.001Z,12.70
2019-04-27T07:03:40.824Z,12.70
2019-04-27T07:06:10.494Z,12.60
2019-04-27T07:08:40.488Z,12.50
2019-04-27T07:11:11.573Z,12.40
2019-04-27T07:13:41.538Z,12.40
2019-04-27T07:16:11.366Z,12.30
2019-04-27T07:18:41.113Z,12.40
2019-04-27T07:21:18.800Z,12.30
2019-04-27T07:23:56.878Z,12.30
2019-04-27T07:26:30.684Z,12.30
2019-04-27T07:29:00.411Z,12.30
2019-04-27T07:31:31.876Z,12.30
2019-04-27T07:34:01.479Z,12.20
2019-04-27T07:36:31.384Z,11.90
2019-04-27T07:39:01.168Z,11.90
2019-04-27T07:41:30.720Z,11.70
2019-04-27T07:44:08.701Z,11.60
2019-04-27T07:46:38.667Z,11.50
2019-04-27T07:49:09.326Z,11.40
2019-04-27T07:51:39.389Z,11.40
2019-04-27T07:54:09.084Z,11.30
2019-04-27T07:56:39.034Z,11.20
2019-04-27T07:59:09.175Z,11.20
2019-04-27T08:01:39.381Z,11.20
2019-04-27T08:04:09.277Z,11.20
2019-04-27T08:06:38.976Z,11.20
2019-04-27T08:09:09.455Z,11.20
2019-04-27T08:11:39.415Z,11.10
2019-04-27T08:14:09.232Z,11.10
2019-04-27T08:16:38.960Z,10.90
2019-04-27T08:19:09.903Z,10.90
2019-04-27T08:21:44.545Z,10.90
2019-04-27T08:24:11.209Z,10.90
2019-04-27T08:26:59.429Z,10.90
2019-04-27T08:29:42.605Z,11.00
2019-04-27T08:32:22.801Z,11.10
2019-04-27T08:34:52.390Z,11.20
2019-04-27T08:37:21.909Z,11.10
2019-04-27T08:39:51.394Z,11.10
2019-04-27T08:42:21.180Z,11.00
2019-04-27T08:44:50.990Z,10.90
2019-04-27T08:47:20.587Z,10.90
2019-04-27T08:49:50.111Z,10.90
2019-04-27T08:52:19.663Z,11.00
2019-04-27T08:54:51.045Z,11.10
2019-04-27T08:57:20.563Z,11.10
2019-04-27T08:59:51.097Z,11.30
2019-04-27T09:02:20.913Z,11.40
2019-04-27T09:04:50.406Z,11.50
2019-04-27T09:07:33.980Z,11.60
2019-04-27T09:10:16.020Z,11.60
2019-04-27T09:12:53.533Z,11.50
2019-04-27T09:15:40.388Z,11.40
2019-04-27T09:18:11.565Z,11.50
2019-04-27T09:20:42.717Z,11.60
2019-04-27T09:23:12.290Z,11.70
2019-04-27T09:25:41.899Z,11.80
2019-04-27T09:28:11.403Z,11.80
2019-04-27T09:30:41.137Z,11.80
2019-04-27T09:33:10.657Z,11.90
2019-04-27T09:35:40.257Z,12.10
2019-04-27T09:38:09.787Z,12.10
2019-04-27T09:40:39.299Z,12.10
2019-04-27T09:43:08.997Z,12.10
2019-04-27T09:45:38.744Z,12.10
2019-04-27T09:48:08.650Z,12.10
2019-04-27T09:50:38.301Z,12.00
2019-04-27T09:53:08.111Z,12.10
2019-04-27T09:55:37.873Z,12.20
2019-04-27T09:58:07.848Z,12.20
2019-04-27T10:00:37.872Z,12.30
2019-04-27T10:03:07.516Z,12.20
2019-04-27T10:05:37.167Z,12.20
2019-04-27T10:08:07.118Z,12.30
2019-04-27T10:10:37.290Z,12.30
2019-04-27T10:13:07.155Z,12.40
2019-04-27T10:15:37.064Z,12.50
2019-04-27T10:18:06.683Z,12.40
2019-04-27T10:20:40.505Z,12.50
2019-04-27T10:23:07.422Z,12.60
2019-04-27T10:25:37.870Z,12.60
2019-04-27T10:28:07.446Z,12.50
2019-04-27T10:30:37.180Z,12.40
2019-04-27T10:33:08.221Z,12.50
2019-04-27T10:35:37.925Z,12.70
2019-04-27T10:38:07.611Z,12.70
2019-04-27T10:40:37.145Z,12.80
2019-04-27T10:43:06.831Z,13.00
2019-04-27T10:45:37.869Z,13.10
2019-04-27T10:48:07.539Z,13.40
2019-04-27T10:50:37.332Z,13.60
2019-04-27T10:53:07.175Z,13.60
2019-04-27T10:55:36.804Z,13.40
2019-04-27T10:58:06.605Z,13.30
2019-04-27T11:00:47.008Z,13.00
2019-04-27T11:03:18.233Z,12.90
2019-04-27T11:05:47.522Z,12.80
2019-04-27T11:08:17.251Z,12.90
2019-04-27T11:10:46.765Z,12.90
2019-04-27T11:13:16.598Z,12.00
2019-04-27T11:15:46.586Z,11.10
2019-04-27T11:18:16.711Z,10.50
2019-04-27T11:20:46.963Z,9.90
2019-04-27T11:23:16.582Z,9.60
2019-04-27T11:25:46.806Z,9.30
2019-04-27T11:28:16.835Z,9.20
2019-04-27T11:30:46.400Z,9.20
2019-04-27T11:33:16.300Z,9.20
2019-04-27T11:35:53.767Z,9.20
2019-04-27T11:38:23.602Z,9.30
2019-04-27T11:40:53.140Z,9.40
2019-04-27T11:43:22.807Z,9.50
2019-04-27T11:45:52.546Z,9.50
2019-04-27T11:48:22.763Z,9.70
2019-04-27T11:50:52.564Z,9.70
2019-04-27T11:53:23.086Z,9.70
2019-04-27T11:55:52.835Z,9.80
2019-04-27T11:58:22.471Z,10.00
2019-04-27T12:00:52.433Z,10.30
2019-04-27T12:03:22.064Z,10.30
2019-04-27T12:05:51.800Z,10.40
2019-04-27T12:08:21.466Z,10.50
2019-04-27T12:10:51.055Z,10.50
2019-04-27T12:13:20.668Z,10.70
2019-04-27T12:15:50.321Z,10.90
2019-04-27T12:18:19.891Z,10.90
2019-04-27T12:20:49.712Z,10.80
2019-04-27T12:23:19.229Z,10.70
2019-04-27T12:25:49.157Z,10.60
2019-04-27T12:28:23.101Z,10.60
2019-04-27T12:31:00.025Z,10.70
2019-04-27T12:33:29.607Z,10.50
2019-04-27T12:35:59.164Z,10.30
2019-04-27T12:38:28.744Z,10.10
2019-04-27T12:40:58.466Z,10.00
2019-04-27T12:43:28.458Z,9.80
2019-04-27T12:45:58.177Z,9.70
2019-04-27T12:48:27.836Z,9.70
2019-04-27T12:50:57.499Z,9.40
2019-04-27T12:53:26.835Z,9.30
2019-04-27T12:55:57.996Z,9.20
2019-04-27T12:58:29.211Z,9.10
2019-04-27T13:01:00.368Z,9.00
2019-04-27T13:03:29.883Z,9.00
2019-04-27T13:05:59.367Z,9.10
2019-04-27T13:08:28.958Z,9.00
2019-04-27T13:10:58.522Z,9.00
2019-04-27T13:13:28.032Z,8.90
2019-04-27T13:15:57.716Z,9.00
2019-04-27T13:18:27.453Z,9.20
2019-04-27T13:20:57.090Z,9.60
2019-04-27T13:23:28.124Z,10.10
2019-04-27T13:25:57.846Z,10.30
2019-04-27T13:28:27.436Z,10.50
2019-04-27T13:30:57.272Z,10.50
2019-04-27T13:33:27.079Z,10.50
2019-04-27T13:35:56.994Z,10.40
2019-04-27T13:38:26.831Z,10.40
2019-04-27T13:41:07.342Z,10.40
2019-04-27T13:43:38.212Z,10.40
2019-04-27T13:46:19.585Z,10.40
2019-04-27T13:49:07.157Z,10.40
2019-04-27T13:51:36.424Z,10.40
2019-04-27T13:54:17.100Z,10.40
2019-04-27T13:56:37.646Z,10.50
2019-04-27T13:59:07.783Z,10.50
2019-04-27T14:01:37.647Z,10.40
2019-04-27T14:04:07.440Z,10.40
2019-04-27T14:06:37.025Z,10.50
2019-04-27T14:09:09.186Z,10.80
2019-04-27T14:11:39.417Z,11.00
2019-04-27T14:14:11.968Z,11.20
2019-04-27T14:16:43.801Z,11.40
2019-04-27T14:19:12.986Z,11.60
2019-04-27T14:21:42.465Z,11.80
2019-04-27T14:24:11.984Z,12.00
2019-04-27T14:26:42.562Z,12.20
2019-04-27T14:29:12.130Z,12.40
2019-04-27T14:31:41.642Z,12.40
2019-04-27T14:34:11.227Z,12.50
2019-04-27T14:36:40.770Z,12.60
2019-04-27T14:39:12.235Z,12.50
2019-04-27T14:41:41.841Z,12.20
2019-04-27T14:44:11.392Z,12.10
2019-04-27T14:46:40.911Z,12.20
2019-04-27T14:49:10.639Z,12.20
2019-04-27T14:51:40.320Z,12.10
2019-04-27T14:54:09.811Z,12.20
2019-04-27T14:56:39.519Z,12.20
2019-04-27T14:59:09.379Z,12.10
2019-04-27T15:01:40.068Z,12.30
2019-04-27T15:04:09.891Z,12.50
2019-04-27T15:06:39.411Z,12.40
2019-04-27T15:09:09.139Z,12.40
2019-04-27T15:11:39.079Z,12.30
2019-04-27T15:14:09.054Z,12.20
2019-04-27T15:16:42.633Z,12.10
2019-04-27T15:19:13.165Z,12.00
2019-04-27T15:21:55.825Z,11.90
2019-04-27T15:24:14.485Z,11.70
2019-04-27T15:26:44.209Z,11.60
2019-04-27T15:29:15.344Z,11.30
2019-04-27T15:31:49.663Z,11.30
2019-04-27T15:34:29.535Z,11.10
2019-04-27T15:36:58.976Z,10.80
2019-04-27T15:39:46.261Z,10.60
2019-04-27T15:42:15.838Z,10.70
2019-04-27T15:44:45.668Z,10.90
2019-04-27T15:47:15.369Z,11.20
2019-04-27T15:49:49.794Z,11.40
2019-04-27T15:52:17.855Z,11.70
2019-04-27T15:54:48.144Z,11.80
2019-04-27T15:57:19.145Z,12.00
2019-04-27T15:59:49.376Z,12.00
2019-04-27T16:02:19.025Z,11.90
2019-04-27T16:04:49.877Z,11.80
2019-04-27T16:07:25.317Z,11.70
2019-04-27T16:09:54.366Z,11.70
2019-04-27T16:12:22.470Z,11.70
2019-04-27T16:14:52.054Z,11.60
2019-04-27T16:17:23.074Z,11.40
2019-04-27T16:19:52.660Z,11.40
2019-04-27T16:22:22.702Z,11.30
2019-04-27T16:24:54.623Z,10.80
2019-04-27T16:27:25.913Z,10.40
2019-04-27T16:29:55.603Z,10.10
2019-04-27T16:32:25.184Z,9.70
2019-04-27T16:34:54.712Z,9.60
2019-04-27T16:37:41.645Z,9.30
2019-04-27T16:40:11.560Z,9.00
2019-04-27T16:42:45.236Z,8.80
2019-04-27T16:45:12.832Z,8.60
2019-04-27T16:47:42.622Z,8.60
2019-04-27T16:50:12.479Z,8.50
2019-04-27T16:52:42.039Z,8.40
2019-04-27T16:55:11.860Z,8.40
2019-04-27T16:57:41.508Z,8.50
2019-04-27T17:00:18.256Z,8.60
2019-04-27T17:02:49.190Z,8.70
2019-04-27T17:05:19.176Z,8.80
2019-04-27T17:07:48.683Z,8.80
2019-04-27T17:10:25.192Z,8.90
2019-04-27T17:12:51.217Z,9.00
2019-04-27T17:15:41.820Z,9.10
2019-04-27T17:18:24.491Z,9.10
2019-04-27T17:20:59.261Z,9.20
2019-04-27T17:23:31.266Z,9.30
2019-04-27T17:26:06.302Z,9.50
2019-04-27T17:28:39.586Z,9.70
2019-04-27T17:31:13.001Z,9.80
2019-04-27T17:33:44.520Z,9.80
2019-04-27T17:36:16.342Z,9.90
2019-04-27T17:38:47.232Z,9.90
2019-04-27T17:41:18.273Z,9.90
2019-04-27T17:43:48.261Z,9.90
2019-04-27T17:46:17.865Z,9.90
2019-04-27T17:48:48.571Z,9.80
2019-04-27T17:51:18.248Z,9.80
2019-04-27T17:53:49.710Z,9.80
2019-04-27T17:56:19.121Z,9.70
2019-04-27T17:58:48.825Z,9.80
2019-04-27T18:01:23.417Z,9.70
2019-04-27T18:03:59.108Z,9.60
2019-04-27T18:06:24.487Z,9.60
2019-04-27T18:08:55.028Z,9.50
2019-04-27T18:11:25.472Z,9.50
2019-04-27T18:13:55.942Z,9.50
2019-04-27T18:16:30.508Z,9.40
2019-04-27T18:19:07.984Z,9.30
2019-04-27T18:21:32.433Z,9.20
2019-04-27T18:24:12.702Z,9.20
2019-04-27T18:26:50.093Z,9.20
2019-04-27T18:29:18.448Z,9.10
2019-04-27T18:31:53.412Z,9.10
2019-04-27T18:34:19.793Z,9.10
2019-04-27T18:36:49.387Z,9.10
2019-04-27T18:39:19.294Z,9.10
2019-04-27T18:41:53.869Z,9.10
2019-04-27T18:44:23.956Z,9.10
2019-04-27T18:46:53.614Z,8.80
2019-04-27T18:49:30.634Z,8.40
2019-04-27T18:52:17.655Z,8.10
2019-04-27T18:54:47.367Z,7.80
2019-04-27T18:57:17.042Z,7.60
2019-04-27T18:59:48.235Z,7.40
2019-04-27T19:02:18.495Z,7.30
2019-04-27T19:04:49.900Z,7.30
2019-04-27T19:07:19.941Z,7.20
2019-04-27T19:09:49.744Z,7.20
2019-04-27T19:12:20.548Z,7.20
2019-04-27T19:14:50.181Z,7.20
2019-04-27T19:17:20.023Z,7.20
2019-04-27T19:19:49.833Z,7.30
2019-04-27T19:22:19.409Z,7.30
2019-04-27T19:24:48.900Z,7.30
2019-04-27T19:27:30.050Z,7.30
2019-04-27T19:30:01.308Z,7.40
2019-04-27T19:32:30.953Z,7.40
2019-04-27T19:35:00.630Z,7.40
2019-04-27T19:37:30.281Z,7.40
2019-04-27T19:39:59.880Z,7.40
2019-04-27T19:42:29.404Z,7.50
2019-04-27T19:44:59.064Z,7.50
2019-04-27T19:47:29.910Z,7.50
2019-04-27T19:50:00.161Z,7.50
2019-04-27T19:52:29.986Z,7.50
2019-04-27T19:55:00.520Z,7.50
2019-04-27T19:57:36.337Z,7.40
2019-04-27T20:00:03.703Z,7.50
2019-04-27T20:02:33.453Z,7.50
2019-04-27T20:05:07.028Z,7.50
2019-04-27T20:07:38.057Z,7.60
2019-04-27T20:10:08.998Z,7.60
2019-04-27T20:12:40.946Z,7.60
2019-04-27T20:15:11.253Z,7.60
2019-04-27T20:17:41.358Z,7.60
2019-04-27T20:20:11.905Z,7.60
2019-04-27T20:22:43.543Z,7.60
2019-04-27T20:25:13.748Z,7.60
2019-04-27T20:27:49.145Z,7.60
2019-04-27T20:30:17.607Z,7.50
2019-04-27T20:32:47.724Z,7.50
2019-04-27T20:35:17.685Z,7.50
2019-04-27T20:37:47.846Z,7.50
2019-04-27T20:40:18.776Z,7.50
2019-04-27T20:42:48.914Z,7.50
2019-04-27T20:45:19.187Z,7.50
2019-04-27T20:47:52.358Z,7.50
2019-04-27T20:50:21.298Z,7.60
2019-04-27T20:52:53.036Z,7.60
2019-04-27T20:55:22.742Z,7.60
2019-04-27T20:57:59.662Z,7.70
2019-04-27T21:00:24.179Z,7.70
2019-04-27T21:02:58.506Z,7.80
2019-04-27T21:05:28.036Z,7.80
2019-04-27T21:08:08.239Z,7.90
2019-04-27T21:10:37.806Z,7.90
2019-04-27T21:13:07.434Z,7.90
2019-04-27T21:15:37.071Z,7.90
2019-04-27T21:18:06.598Z,7.80
2019-04-27T21:20:36.153Z,7.80
2019-04-27T21:23:05.780Z,7.90
2019-04-27T21:25:35.844Z,7.90
2019-04-27T21:28:15.579Z,7.80
2019-04-27T21:30:36.810Z,7.80
2019-04-27T21:33:06.338Z,7.80
2019-04-27T21:35:36.803Z,7.70
2019-04-27T21:38:06.384Z,7.70
2019-04-27T21:40:36.129Z,7.70
2019-04-27T21:43:05.714Z,7.60
2019-04-27T21:45:35.299Z,7.60
2019-04-27T21:48:04.960Z,7.60
2019-04-27T21:50:34.436Z,7.50
2019-04-27T21:53:11.701Z,7.50
2019-04-27T21:55:42.186Z,7.40
2019-04-27T21:58:12.099Z,7.40
2019-04-27T22:00:42.802Z,7.40
2019-04-27T22:03:17.531Z,7.40
2019-04-27T22:05:47.096Z,7.40
2019-04-27T22:08:16.899Z,7.40
2019-04-27T22:10:46.468Z,7.40
2019-04-27T22:13:16.194Z,7.40
2019-04-27T22:15:45.835Z,7.50
2019-04-27T22:18:15.358Z,7.50
2019-04-27T22:20:45.075Z,7.50
2019-04-27T22:23:23.119Z,7.50
2019-04-27T22:25:54.593Z,7.60
2019-04-27T22:28:24.255Z,7.60
2019-04-27T22:30:53.845Z,7.60
2019-04-27T22:33:23.376Z,7.60
2019-04-27T22:35:53.134Z,7.70
2019-04-27T22:38:22.621Z,7.70
2019-04-27T22:40:56.564Z,7.80
2019-04-27T22:43:25.815Z,7.80
2019-04-27T22:45:56.442Z,7.80
2019-04-27T22:48:25.969Z,7.80
2019-04-27T22:50:55.683Z,7.80
2019-04-27T22:53:25.203Z,7.80
2019-04-27T22:56:13.312Z,7.80
2019-04-27T22:58:57.072Z,7.80
2019-04-27T23:01:33.770Z,7.80
2019-04-27T23:04:04.921Z,7.80
2019-04-27T23:06:34.467Z,7.80
2019-04-27T23:09:05.214Z,7.80
2019-04-27T23:11:34.853Z,7.80
2019-04-27T23:14:04.524Z,7.80
2019-04-27T23:16:35.766Z,7.80
2019-04-27T23:19:05.742Z,7.80
2019-04-27T23:21:36.001Z,7.70
2019-04-27T23:24:05.594Z,7.70
2019-04-27T23:26:35.200Z,7.70
2019-04-27T23:29:13.155Z,7.70
2019-04-27T23:31:37.843Z,7.70
2019-04-27T23:34:07.403Z,7.70
2019-04-27T23:36:36.942Z,7.70
2019-04-27T23:39:08.426Z,7.70
2019-04-27T23:41:38.320Z,7.70
2019-04-27T23:44:07.802Z,7.60
2019-04-27T23:46:37.384Z,7.70
2019-04-27T23:49:07.192Z,7.70
2019-04-27T23:51:45.697Z,7.70
2019-04-27T23:54:15.341Z,7.70
2019-04-27T23:56:44.993Z,7.70
2019-04-27T23:59:24.670Z,7.70
